Time;durP1;ratioP1;P1;durP2;ratioP2;P2;SDS_P1;SDS_P2;PMS_P1;PMS_P2;Temp;Humidity;BMP_temperature;BMP_pressure;BME280_temperature;BME280_humidity;BME280_pressure;Samples;Min_cycle;Max_cycle;Signal;HPM_P1;HPM_P2
2023/01/26 00:01:38;;;;;;;38.33;17.92;;;0.30;93.90;;;;;;5047357;28;20088;-44
2023/01/26 00:04:03;;;;;;;38.53;18.75;;;0.40;94.00;;;;;;5025453;28;20119;-46
2023/01/26 00:06:32;;;;;;;43.88;18.58;;;0.30;93.90;;;;;;5032542;28;20106;-45
2023/01/26 00:08:59;;;;;;;37.08;18.33;;;0.40;94.00;;;;;;5018846;28;20042;-46
2023/01/26 00:11:32;;;;;;;39.78;18.23;;;0.30;93.90;;;;;;5018691;28;20036;-45
2023/01/26 00:14:00;;;;;;;33.10;17.83;;;0.40;94.00;;;;;;5016750;28;20455;-45
2023/01/26 00:16:27;;;;;;;39.97;18.03;;;0.40;94.00;;;;;;5020402;28;20052;-45
2023/01/26 00:18:55;;;;;;;35.38;16.40;;;0.40;94.00;;;;;;5021441;28;20466;-48
2023/01/26 00:21:22;;;;;;;35.15;18.20;;;0.40;94.00;;;;;;5024734;28;20091;-45
2023/01/26 00:23:59;;;;;;;33.08;17.05;;;0.40;93.90;;;;;;5004729;28;20044;-45
2023/01/26 00:26:27;;;;;;;38.97;20.83;;;0.40;94.00;;;;;;5021406;28;20025;-45
2023/01/26 00:28:53;;;;;;;34.33;17.90;;;0.40;93.90;;;;;;5021303;28;20065;-44
2023/01/26 00:31:25;;;;;;;36.78;19.27;;;0.40;94.00;;;;;;5022893;28;20030;-45
2023/01/26 00:33:54;;;;;;;34.60;16.65;;;0.40;94.10;;;;;;5012431;28;20069;-46
2023/01/26 00:36:21;;;;;;;39.20;20.58;;;0.40;94.00;;;;;;5011089;28;20143;-45
2023/01/26 00:38:47;;;;;;;39.97;19.98;;;0.40;94.00;;;;;;5016681;28;20041;-45
2023/01/26 00:42:05;;;;;;;36.83;18.65;;;0.40;94.00;;;;;;5021339;28;20018;-47
2023/01/26 00:43:59;;;;;;;37.45;18.02;;;0.40;94.00;;;;;;5022969;28;20053;-43
2023/01/26 00:46:26;;;;;;;35.58;18.05;;;0.40;94.00;;;;;;5021727;28;20029;-51
2023/01/26 00:48:52;;;;;;;40.97;19.77;;;0.40;93.90;;;;;;5023232;28;20091;-49
2023/01/26 00:51:19;;;;;;;36.83;17.35;;;0.40;93.90;;;;;;5023217;28;20033;-52
2023/01/26 00:53:47;;;;;;;35.28;17.33;;;0.30;93.90;;;;;;5011929;28;20030;-53
2023/01/26 00:56:13;;;;;;;34.60;17.88;;;0.40;94.00;;;;;;5012935;28;20026;-56
2023/01/26 00:58:41;;;;;;;39.78;19.35;;;0.40;94.10;;;;;;5012469;28;20040;-58
2023/01/26 01:01:07;;;;;;;35.15;17.88;;;0.40;94.20;;;;;;5013072;28;20034;-59
2023/01/26 01:03:37;;;;;;;37.55;18.90;;;0.40;94.00;;;;;;5012710;28;20036;-57
2023/01/26 01:06:21;;;;;;;35.38;18.13;;;0.50;94.10;;;;;;5012219;28;20030;-58
2023/01/26 01:08:50;;;;;;;35.80;17.73;;;0.40;94.10;;;;;;5012383;28;20085;-57
2023/01/26 01:11:15;;;;;;;29.35;16.55;;;0.50;94.20;;;;;;5012419;28;20125;-57
2023/01/26 01:13:44;;;;;;;33.80;17.05;;;0.50;94.10;;;;;;5011977;28;20113;-58
2023/01/26 01:16:16;;;;;;;34.33;19.17;;;0.50;94.20;;;;;;5012589;28;20034;-60
2023/01/26 01:18:44;;;;;;;34.75;17.60;;;0.50;94.20;;;;;;5012760;28;20037;-60
2023/01/26 01:21:13;;;;;;;29.02;15.55;;;0.50;94.10;;;;;;5015159;28;20029;-61
2023/01/26 01:23:42;;;;;;;34.70;15.05;;;0.50;94.10;;;;;;5032549;28;20033;-61
2023/01/26 01:26:11;;;;;;;27.73;15.93;;;0.50;94.00;;;;;;5014835;28;20033;-61
2023/01/26 01:28:39;;;;;;;29.85;14.75;;;0.50;94.10;;;;;;5030658;28;20044;-61
2023/01/26 01:31:11;;;;;;;27.50;13.52;;;0.50;94.20;;;;;;5010402;28;20045;-61
2023/01/26 01:33:37;;;;;;;26.05;13.35;;;0.60;94.20;;;;;;5029566;28;20467;-62
2023/01/26 01:36:09;;;;;;;25.17;12.52;;;0.50;94.10;;;;;;5032081;28;20128;-62
2023/01/26 01:38:37;;;;;;;30.15;15.60;;;0.50;94.20;;;;;;4998714;28;20091;-61
2023/01/26 01:41:05;;;;;;;28.48;14.63;;;0.60;94.20;;;;;;5032093;28;20033;-62
2023/01/26 01:43:32;;;;;;;27.35;12.68;;;0.60;94.20;;;;;;5030061;28;20477;-62
2023/01/26 01:46:04;;;;;;;24.45;11.82;;;0.60;94.20;;;;;;5017656;28;20101;-62
2023/01/26 01:48:44;;;;;;;25.17;13.65;;;0.70;94.30;;;;;;5013855;28;20064;-62
2023/01/26 01:51:13;;;;;;;;;;;0.70;94.20;;;;;;4999363;28;20030;-62
2023/01/26 01:53:47;;;;;;;22.43;10.90;;;0.60;94.10;;;;;;5014995;28;19917;-62
2023/01/26 01:56:23;;;;;;;23.15;11.48;;;0.60;94.10;;;;;;5017802;28;20034;-62
2023/01/26 01:58:56;;;;;;;26.95;12.77;;;0.60;94.20;;;;;;5022673;28;20513;-62
2023/01/26 02:01:23;;;;;;;23.40;11.38;;;0.60;94.20;;;;;;5019637;28;20129;-62
2023/01/26 02:04:04;;;;;;;20.40;10.15;;;0.60;94.20;;;;;;5014733;28;20033;-62
2023/01/26 02:06:42;;;;;;;24.63;12.57;;;0.60;94.10;;;;;;5014454;28;20046;-62
2023/01/26 02:10:17;;;;;;;21.88;11.43;;;0.70;94.20;;;;;;5013676;28;20061;-62
2023/01/26 02:12:03;;;;;;;23.17;12.98;;;0.60;94.30;;;;;;5013156;28;20038;-62
2023/01/26 02:14:34;;;;;;;23.08;11.32;;;0.70;94.20;;;;;;5033198;28;20463;-62
2023/01/26 02:16:59;;;;;;;20.23;11.00;;;0.60;94.20;;;;;;5034345;28;20363;-63
2023/01/26 02:19:59;;;;;;;20.92;11.27;;;0.60;94.20;;;;;;5030506;28;20061;-63
2023/01/26 02:22:54;;;;;;;21.80;10.52;;;0.70;94.30;;;;;;4994541;28;20540;-63
2023/01/26 02:25:53;;;;;;;24.83;11.88;;;0.70;94.30;;;;;;5019579;28;20041;-63
2023/01/26 02:28:22;;;;;;;;;;;0.70;94.30;;;;;;5027385;28;20056;-63
2023/01/26 02:30:58;;;;;;;21.42;11.63;;;0.70;94.30;;;;;;5027952;28;20004;-63
2023/01/26 02:33:30;;;;;;;19.85;11.43;;;0.60;94.20;;;;;;5025802;28;20025;-63
2023/01/26 02:35:58;;;;;;;23.92;12.32;;;0.60;94.20;;;;;;5017191;28;20041;-63
2023/01/26 02:38:33;;;;;;;24.15;11.43;;;0.60;94.40;;;;;;5033722;28;20040;-63
2023/01/26 02:41:06;;;;;;;23.65;10.93;;;0.70;94.40;;;;;;5001716;28;20041;-63
2023/01/26 02:43:34;;;;;;;21.85;11.57;;;0.70;94.40;;;;;;5017667;28;20033;-63
2023/01/26 02:46:01;;;;;;;18.88;10.57;;;0.70;94.30;;;;;;5014530;28;20339;-63
2023/01/26 02:51:13;;;;;;;20.80;10.13;;;0.70;94.40;;;;;;5014942;28;20085;-63
2023/01/26 02:53:41;;;;;;;23.52;12.05;;;0.60;94.40;;;;;;5013688;28;20037;-63
2023/01/26 02:56:09;;;;;;;22.80;12.10;;;0.70;94.40;;;;;;5029726;28;20029;-63
2023/01/26 02:58:37;;;;;;;22.35;11.88;;;0.70;94.40;;;;;;5023938;28;20518;-63
2023/01/26 03:01:03;;;;;;;25.05;12.40;;;0.70;94.40;;;;;;5016419;28;20038;-63
2023/01/26 03:03:40;;;;;;;22.77;13.40;;;0.70;94.40;;;;;;5032216;28;20029;-63
2023/01/26 03:06:10;;;;;;;25.73;12.23;;;0.70;94.40;;;;;;5013891;28;20037;-63
2023/01/26 03:08:41;;;;;;;26.75;11.68;;;0.80;94.50;;;;;;5028936;28;20111;-63
2023/01/26 03:11:10;;;;;;;21.30;11.25;;;0.70;94.40;;;;;;5019443;28;20371;-64
2023/01/26 03:13:38;;;;;;;26.23;12.07;;;0.70;94.40;;;;;;5014453;28;20022;-64
2023/01/26 03:16:09;;;;;;;23.92;12.75;;;0.70;94.40;;;;;;5033444;28;20504;-64
2023/01/26 03:29:42;;;;;;;23.92;12.85;;;0.70;94.50;;;;;;5014084;28;20056;-64
2023/01/26 03:32:09;;;;;;;24.63;12.88;;;0.70;94.50;;;;;;5013770;28;20026;-64
2023/01/26 03:34:36;;;;;;;25.58;12.45;;;0.80;94.50;;;;;;5014207;28;20026;-64
2023/01/26 03:37:06;;;;;;;21.83;11.90;;;0.80;94.50;;;;;;5013700;28;20436;-63
2023/01/26 03:56:23;;;;;;;23.08;12.30;;;0.70;94.60;;;;;;5012548;28;20060;-63
2023/01/26 03:59:07;;;;;;;22.80;12.20;;;0.70;94.70;;;;;;5014048;28;20354;-63
2023/01/26 04:10:17;;;;;;;26.10;12.65;;;0.90;94.80;;;;;;5013065;28;20064;-63
2023/01/26 04:12:44;;;;;;;24.30;11.38;;;0.90;94.70;;;;;;5013145;28;20030;-64
2023/01/26 04:23:27;;;;;;;24.45;12.63;;;0.90;94.70;;;;;;5013677;28;20474;-64
2023/01/26 04:25:55;;;;;;;27.13;12.27;;;0.90;94.70;;;;;;5013176;28;20045;-64
2023/01/26 04:28:28;;;;;;;23.97;12.27;;;0.90;94.70;;;;;;5011915;28;20042;-64
2023/01/26 04:30:56;;;;;;;27.25;12.48;;;0.90;94.80;;;;;;5012729;28;20021;-64
2023/01/26 04:33:22;;;;;;;23.75;11.90;;;0.90;94.70;;;;;;5013420;28;20030;-64
2023/01/26 04:35:53;;;;;;;25.25;13.50;;;0.90;94.80;;;;;;5012973;28;20037;-65
2023/01/26 04:38:21;;;;;;;24.08;12.15;;;0.90;94.90;;;;;;5013255;28;20414;-64
2023/01/26 04:40:54;;;;;;;29.70;12.82;;;0.90;94.80;;;;;;5014029;28;20033;-63
2023/01/26 04:43:22;;;;;;;26.75;13.35;;;1.00;94.90;;;;;;5013294;28;20030;-63
2023/01/26 04:46:04;;;;;;;23.38;12.02;;;1.00;94.80;;;;;;5011900;28;20033;-64
2023/01/26 04:48:32;;;;;;;27.98;13.02;;;1.00;94.90;;;;;;5012507;28;20072;-64
2023/01/26 04:51:03;;;;;;;24.63;13.77;;;1.00;94.90;;;;;;5012867;28;20030;-65
2023/01/26 04:53:31;;;;;;;22.63;12.07;;;1.00;94.90;;;;;;5013113;28;20093;-65
2023/01/26 04:55:57;;;;;;;22.20;12.15;;;1.00;94.90;;;;;;5011884;28;20033;-64
2023/01/26 04:58:24;;;;;;;24.83;12.40;;;1.00;94.90;;;;;;5013278;28;20030;-64
2023/01/26 05:00:56;;;;;;;24.45;13.43;;;1.00;94.80;;;;;;5012671;28;20096;-63
2023/01/26 05:03:25;;;;;;;24.88;12.82;;;1.00;95.00;;;;;;5011890;28;20339;-64
2023/01/26 05:05:53;;;;;;;24.70;12.70;;;1.00;94.90;;;;;;4995585;28;20176;-64
2023/01/26 05:08:21;;;;;;;21.15;11.45;;;1.00;95.00;;;;;;5011607;28;20481;-63
2023/01/26 05:10:48;;;;;;;25.05;12.15;;;1.10;95.00;;;;;;5011917;28;20482;-64
2023/01/26 05:13:14;;;;;;;24.80;12.63;;;1.10;94.90;;;;;;5011825;28;20034;-65
2023/01/26 05:15:41;;;;;;;25.70;12.90;;;1.10;95.00;;;;;;5019361;28;20037;-66
2023/01/26 05:18:08;;;;;;;28.33;12.07;;;1.10;95.10;;;;;;5018827;28;20045;-66
2023/01/26 05:20:35;;;;;;;26.67;13.95;;;1.20;95.00;;;;;;5031323;28;20047;-66
2023/01/26 05:23:02;;;;;;;25.63;12.77;;;1.20;95.00;;;;;;5028077;28;20030;-64
2023/01/26 05:25:31;;;;;;;26.35;12.60;;;1.20;95.10;;;;;;5022850;28;20026;-66
2023/01/26 05:27:56;;;;;;;27.25;13.30;;;1.20;95.10;;;;;;5024096;28;20032;-67
2023/01/26 05:30:23;;;;;;;25.42;12.43;;;1.20;95.10;;;;;;5018115;28;20034;-67
2023/01/26 05:32:50;;;;;;;27.02;12.75;;;1.30;95.10;;;;;;5016262;28;20033;-67
2023/01/26 05:35:17;;;;;;;28.98;13.23;;;1.30;95.10;;;;;;5015247;28;20034;-67
2023/01/26 05:37:45;;;;;;;25.27;12.57;;;1.30;95.10;;;;;;5016073;28;20030;-66
2023/01/26 05:40:14;;;;;;;26.10;12.88;;;1.40;95.10;;;;;;4998760;28;20030;-66
2023/01/26 05:42:42;;;;;;;26.05;14.18;;;1.30;95.00;;;;;;5016093;28;20100;-65
2023/01/26 05:45:10;;;;;;;22.52;11.80;;;1.40;95.10;;;;;;5015142;28;20040;-66
2023/01/26 05:47:37;;;;;;;20.63;11.40;;;1.50;95.20;;;;;;5016040;28;20099;-66
2023/01/26 05:50:04;;;;;;;28.58;14.82;;;1.50;95.10;;;;;;5014671;28;20037;-65
2023/01/26 05:52:31;;;;;;;27.65;12.18;;;1.50;95.20;;;;;;5016062;28;20034;-64
2023/01/26 05:54:58;;;;;;;26.58;12.52;;;1.50;95.10;;;;;;5016027;28;20025;-63
2023/01/26 05:57:26;;;;;;;26.25;13.32;;;1.60;95.10;;;;;;5014892;28;20030;-62
2023/01/26 05:59:52;;;;;;;24.75;12.50;;;1.60;95.20;;;;;;5020794;28;20249;-61
2023/01/26 06:02:18;;;;;;;25.30;12.38;;;1.70;95.20;;;;;;5036576;28;20061;-60
2023/01/26 06:04:45;;;;;;;28.30;13.18;;;1.70;95.20;;;;;;5032061;28;20063;-59
2023/01/26 06:07:13;;;;;;;28.15;13.60;;;1.70;95.20;;;;;;5034049;28;20078;-59
2023/01/26 06:09:44;;;;;;;30.60;11.52;;;1.80;95.20;;;;;;5026150;28;20351;-55
2023/01/26 06:12:21;;;;;;;31.85;11.45;;;1.80;95.30;;;;;;5010310;28;20037;-57
2023/01/26 06:14:48;;;;;;;26.58;10.18;;;1.90;95.30;;;;;;5014244;28;20129;-57
2023/01/26 06:17:18;;;;;;;25.83;8.77;;;2.00;95.40;;;;;;5015073;28;20069;-56
2023/01/26 06:19:45;;;;;;;37.53;7.40;;;2.10;95.60;;;;;;5031125;28;20030;-57
2023/01/26 06:22:12;;;;;;;33.08;5.45;;;2.50;95.90;;;;;;5017732;28;20064;-56
2023/01/26 06:24:38;;;;;;;35.65;5.03;;;2.90;96.20;;;;;;5014699;28;20049;-54
2023/01/26 06:27:10;;;;;;;33.55;7.07;;;3.30;96.30;;;;;;5014456;28;20026;-53
2023/01/26 06:29:37;;;;;;;39.80;5.47;;;3.60;96.30;;;;;;5013649;28;20044;-49
2023/01/26 06:32:05;;;;;;;47.13;6.22;;;3.90;96.30;;;;;;5018300;28;20021;-56
2023/01/26 06:34:32;;;;;;;46.50;5.97;;;4.10;96.30;;;;;;5032120;28;20029;-49
2023/01/26 06:36:59;;;;;;;54.28;6.95;;;4.20;96.30;;;;;;5013454;28;20030;-49
2023/01/26 06:39:28;;;;;;;45.80;6.40;;;4.40;96.30;;;;;;5043560;28;20116;-48
2023/01/26 06:41:55;;;;;;;51.88;8.85;;;4.50;96.40;;;;;;5021952;28;20389;-48
2023/01/26 06:44:21;;;;;;;38.78;6.15;;;4.50;96.30;;;;;;5036821;28;20088;-50
2023/01/26 06:46:48;;;;;;;43.70;7.65;;;4.60;96.30;;;;;;5016858;28;20041;-48
2023/01/26 06:49:17;;;;;;;43.95;8.95;;;4.60;96.30;;;;;;5026555;28;20034;-48
2023/01/26 06:51:55;;;;;;;54.80;8.63;;;4.70;96.30;;;;;;5016320;28;20034;-50
2023/01/26 06:54:24;;;;;;;36.17;7.07;;;4.70;96.30;;;;;;5013707;28;20387;-50
2023/01/26 06:56:52;;;;;;;41.55;6.60;;;4.70;96.40;;;;;;5009709;28;20025;-48
2023/01/26 06:59:18;;;;;;;58.97;8.60;;;4.70;96.40;;;;;;5025322;28;20129;-48
2023/01/26 07:01:47;;;;;;;45.83;8.15;;;4.80;96.40;;;;;;5023500;28;20402;-48
2023/01/26 07:04:15;;;;;;;37.55;6.38;;;4.80;96.40;;;;;;5022298;28;20036;-48
2023/01/26 07:06:42;;;;;;;41.05;8.00;;;4.80;96.40;;;;;;5022452;28;20040;-49
2023/01/26 07:09:11;;;;;;;54.15;7.10;;;4.90;96.40;;;;;;5031801;28;20049;-48
2023/01/26 07:11:36;;;;;;;43.05;6.90;;;4.90;96.40;;;;;;5017221;28;20460;-47
2023/01/26 07:14:03;;;;;;;43.20;7.22;;;4.90;96.40;;;;;;5012964;28;20032;-50
2023/01/26 07:16:30;;;;;;;38.45;6.75;;;4.90;96.40;;;;;;5024931;28;20033;-48
2023/01/26 07:18:57;;;;;;;40.65;6.53;;;4.90;96.40;;;;;;5032801;28;20052;-51
2023/01/26 07:21:24;;;;;;;43.88;5.82;;;5.00;96.40;;;;;;5018209;28;20383;-53
2023/01/26 07:23:52;;;;;;;52.40;8.25;;;5.00;96.40;;;;;;5021586;28;20037;-48
2023/01/26 07:26:20;;;;;;;61.13;8.77;;;5.00;96.40;;;;;;5025647;28;20091;-50
2023/01/26 07:28:45;;;;;;;40.33;7.13;;;5.00;96.40;;;;;;5019656;28;20033;-48
2023/01/26 07:31:12;;;;;;;45.95;7.22;;;5.00;96.40;;;;;;5024992;28;20052;-48
2023/01/26 07:33:39;;;;;;;41.03;7.35;;;5.00;96.40;;;;;;5023820;28;20030;-50
2023/01/26 07:36:06;;;;;;;41.38;7.18;;;5.00;96.40;;;;;;5015076;28;20092;-47
2023/01/26 07:38:34;;;;;;;53.95;7.53;;;5.00;96.40;;;;;;5026882;28;20024;-53
2023/01/26 07:41:06;;;;;;;46.10;7.70;;;5.00;96.40;;;;;;5025841;28;20052;-48
2023/01/26 07:43:35;;;;;;;48.70;6.45;;;5.00;96.30;;;;;;5015112;28;20030;-48
2023/01/26 07:46:01;;;;;;;39.83;6.30;;;5.00;96.30;;;;;;4996946;28;20033;-49
2023/01/26 07:48:30;;;;;;;40.92;6.00;;;5.00;96.30;;;;;;5015082;28;20017;-48
2023/01/26 07:51:02;;;;;;;39.08;8.38;;;5.00;96.30;;;;;;5041659;28;20545;-48
2023/01/26 07:53:42;;;;;;;48.55;6.35;;;5.00;96.30;;;;;;5025864;28;20120;-48
2023/01/26 07:56:12;;;;;;;60.60;6.88;;;5.00;96.30;;;;;;5026044;28;20033;-49
2023/01/26 07:58:39;;;;;;;36.75;7.90;;;5.00;96.30;;;;;;5033669;28;20024;-51
2023/01/26 08:01:24;;;;;;;37.58;6.10;;;5.00;96.30;;;;;;5028040;28;20486;-48
2023/01/26 08:03:53;;;;;;;44.72;7.00;;;5.00;96.30;;;;;;5030289;28;20029;-52
2023/01/26 08:06:19;;;;;;;;;;;5.10;96.20;;;;;;5025021;28;20305;-52
2023/01/26 08:08:52;;;;;;;33.55;6.57;;;5.00;96.20;;;;;;5031884;28;19963;-51
2023/01/26 08:11:21;;;;;;;37.47;6.00;;;5.00;96.20;;;;;;5009216;28;20120;-52
2023/01/26 08:13:49;;;;;;;40.13;7.88;;;5.00;96.20;;;;;;5028790;28;20251;-49
2023/01/26 08:16:17;;;;;;;42.60;8.93;;;5.00;96.20;;;;;;5040231;28;20100;-49
2023/01/26 08:18:45;;;;;;;35.95;6.88;;;5.00;96.20;;;;;;5027409;28;20025;-51
2023/01/26 08:21:14;;;;;;;30.50;6.65;;;5.00;96.10;;;;;;5027408;28;20124;-51
2023/01/26 08:23:47;;;;;;;50.97;11.32;;;5.00;96.20;;;;;;5025541;28;20032;-49
2023/01/26 08:26:14;;;;;;;48.35;6.72;;;5.10;96.10;;;;;;5031857;28;20037;-49
2023/01/26 08:28:40;;;;;;;39.22;7.28;;;5.10;96.10;;;;;;5027998;28;20129;-53
2023/01/26 08:31:18;;;;;;;40.15;6.65;;;5.10;96.10;;;;;;5030832;28;20032;-47
2023/01/26 08:33:49;;;;;;;27.55;5.45;;;5.10;96.10;;;;;;5032124;28;20351;-48
2023/01/26 08:36:18;;;;;;;43.42;6.15;;;5.10;96.00;;;;;;5032117;28;20033;-51
2023/01/26 08:38:45;;;;;;;44.60;5.85;;;5.10;96.00;;;;;;5029781;28;20086;-52
2023/01/26 08:41:12;;;;;;;33.45;6.05;;;5.00;96.00;;;;;;5013769;28;20038;-53
2023/01/26 08:43:40;;;;;;;36.30;7.47;;;5.00;96.00;;;;;;5031697;28;20103;-51
2023/01/26 08:46:08;;;;;;;45.50;8.18;;;5.00;96.00;;;;;;5026717;28;20157;-49
2023/01/26 08:48:37;;;;;;;40.95;7.50;;;5.00;95.90;;;;;;5025308;28;20021;-53
2023/01/26 08:51:05;;;;;;;38.72;6.45;;;4.90;95.90;;;;;;5030568;28;20501;-52
2023/01/26 08:53:38;;;;;;;44.08;6.93;;;4.90;95.90;;;;;;5027553;28;20034;-53
2023/01/26 08:56:09;;;;;;;38.20;6.53;;;4.90;95.80;;;;;;5025054;28;20033;-53
2023/01/26 08:58:40;;;;;;;26.40;5.95;;;4.90;95.90;;;;;;5033136;28;20022;-54
2023/01/26 09:01:12;;;;;;;36.50;6.60;;;4.80;95.80;;;;;;5032624;28;20382;-51
2023/01/26 09:03:54;;;;;;;45.05;7.47;;;4.80;95.80;;;;;;5018309;28;20031;-54
2023/01/26 09:06:21;;;;;;;40.70;8.13;;;4.80;95.80;;;;;;5036836;28;20032;-53
2023/01/26 09:08:47;;;;;;;42.60;9.15;;;4.80;95.80;;;;;;5038837;28;20045;-50
2023/01/26 09:11:15;;;;;;;39.47;8.23;;;4.80;95.80;;;;;;5001065;28;20444;-53
2023/01/26 09:13:43;;;;;;;33.30;7.70;;;4.70;95.70;;;;;;5033060;28;20041;-51
2023/01/26 09:16:18;;;;;;;23.90;5.85;;;4.70;95.70;;;;;;5040607;28;20473;-52
2023/01/26 09:18:49;;;;;;;46.30;9.02;;;4.80;95.80;;;;;;5035813;28;20041;-53
2023/01/26 09:21:16;;;;;;;30.27;6.03;;;4.90;95.80;;;;;;5032164;28;20041;-52
2023/01/26 09:23:42;;;;;;;37.13;6.18;;;5.00;95.80;;;;;;5029630;28;20045;-49
2023/01/26 09:26:11;;;;;;;29.40;5.78;;;5.20;95.80;;;;;;5035164;28;20017;-50
2023/01/26 09:28:38;;;;;;;28.10;5.70;;;5.30;95.80;;;;;;5035211;28;20111;-49
2023/01/26 09:31:16;;;;;;;36.60;6.13;;;5.50;95.80;;;;;;5029806;28;20355;-47
2023/01/26 09:33:44;;;;;;;29.83;5.28;;;5.60;95.80;;;;;;5028867;28;20442;-46
2023/01/26 09:36:12;;;;;;;27.70;4.70;;;5.80;95.70;;;;;;5029817;28;20040;-50
2023/01/26 09:38:40;;;;;;;46.17;7.32;;;5.90;95.60;;;;;;5042819;28;20029;-50
2023/01/26 09:41:17;;;;;;;36.47;5.75;;;6.00;95.60;;;;;;5033892;28;20029;-48
2023/01/26 09:44:00;;;;;;;38.53;5.03;;;6.20;95.60;;;;;;5023215;28;20048;-46
2023/01/26 09:46:51;;;;;;;36.05;7.05;;;6.20;95.40;;;;;;5034078;28;20056;-48
2023/01/26 09:49:51;;;;;;;32.53;5.50;;;6.20;95.20;;;;;;5035481;28;20105;-48
2023/01/26 09:52:32;;;;;;;22.92;5.68;;;6.40;95.10;;;;;;5021217;28;20130;-49
2023/01/26 09:55:04;;;;;;;25.92;4.53;;;6.40;95.00;;;;;;5032042;28;20029;-47
2023/01/26 09:57:43;;;;;;;26.58;5.40;;;6.50;94.80;;;;;;5012592;28;20122;-45
2023/01/26 10:00:25;;;;;;;30.23;5.60;;;6.50;94.50;;;;;;5031924;28;20037;-47
2023/01/26 10:02:58;;;;;;;34.10;5.20;;;6.60;94.20;;;;;;5029372;28;20696;-46
2023/01/26 10:05:54;;;;;;;28.23;4.80;;;6.60;94.00;;;;;;5025483;28;20091;-45
2023/01/26 10:08:22;;;;;;;29.77;5.75;;;6.60;93.90;;;;;;5027912;28;20137;-45
2023/01/26 10:11:11;;;;;;;29.88;4.60;;;6.70;93.60;;;;;;5031731;28;20155;-46
2023/01/26 10:13:45;;;;;;;30.48;6.35;;;6.70;93.50;;;;;;5023495;28;20079;-46
2023/01/26 10:16:14;;;;;;;29.70;6.28;;;6.80;93.30;;;;;;5027667;28;20884;-46
2023/01/26 10:19:01;;;;;;;26.03;4.40;;;6.80;93.10;;;;;;5021989;28;20042;-46
2023/01/26 10:21:34;;;;;;;25.02;4.35;;;6.80;92.80;;;;;;5021398;28;20306;-46
2023/01/26 10:24:01;;;;;;;26.95;4.47;;;6.90;92.80;;;;;;5009162;28;20029;-47
2023/01/26 10:26:31;;;;;;;25.67;4.57;;;6.90;92.70;;;;;;5025766;28;20366;-46
2023/01/26 10:28:59;;;;;;;;;;;6.90;92.50;;;;;;5016720;28;20129;-49
2023/01/26 10:31:28;;;;;;;29.00;4.75;;;6.90;92.40;;;;;;5027946;28;19916;-46
2023/01/26 10:34:13;;;;;;;24.42;4.32;;;6.90;92.20;;;;;;5011291;28;20350;-47
2023/01/26 10:36:47;;;;;;;23.75;5.07;;;6.90;92.20;;;;;;5022012;28;20129;-48
2023/01/26 10:39:16;;;;;;;23.63;4.10;;;6.90;92.10;;;;;;4995682;28;20092;-46
2023/01/26 10:42:01;;;;;;;21.67;5.07;;;7.00;92.00;;;;;;5026768;28;20366;-50
2023/01/26 10:44:49;;;;;;;21.98;3.55;;;7.00;91.90;;;;;;5018505;28;20100;-47
2023/01/26 10:47:17;;;;;;;22.92;5.65;;;7.00;92.00;;;;;;5025271;28;20041;-47
2023/01/26 10:49:44;;;;;;;20.48;3.65;;;7.00;91.80;;;;;;5031237;28;20870;-46
2023/01/26 10:52:24;;;;;;;18.88;3.85;;;6.90;91.70;;;;;;5032698;28;20052;-47
2023/01/26 10:55:11;;;;;;;20.92;3.58;;;7.00;91.80;;;;;;5029854;28;20366;-46
2023/01/26 10:57:41;;;;;;;16.27;4.25;;;7.00;91.70;;;;;;5029441;28;20116;-47
2023/01/26 11:00:41;;;;;;;31.33;3.28;;;7.00;91.60;;;;;;5032662;28;20045;-47
2023/01/26 11:03:17;;;;;;;16.75;4.43;;;7.00;91.40;;;;;;5008465;28;20052;-48
2023/01/26 11:05:46;;;;;;;24.30;4.93;;;7.00;91.30;;;;;;5023794;28;20088;-48
2023/01/26 11:08:36;;;;;;;22.08;5.13;;;7.10;91.40;;;;;;5026084;28;20049;-51
2023/01/26 11:11:06;;;;;;;18.83;3.60;;;7.10;91.20;;;;;;5025057;28;20121;-50
2023/01/26 11:13:32;;;;;;;12.70;3.00;;;7.10;91.10;;;;;;5029529;28;20450;-49
2023/01/26 11:16:27;;;;;;;30.05;4.80;;;7.20;90.80;;;;;;5029683;28;20041;-47
2023/01/26 11:19:08;;;;;;;16.63;3.22;;;7.10;90.60;;;;;;5030185;28;20017;-46
2023/01/26 11:21:57;;;;;;;19.60;4.05;;;7.10;90.70;;;;;;5027884;28;20443;-46
2023/01/26 11:25:14;;;;;;;14.25;3.28;;;7.20;90.80;;;;;;5023445;28;20374;-47
2023/01/26 11:28:21;;;;;;;27.40;3.55;;;7.20;90.50;;;;;;5026479;28;20633;-49
2023/01/26 11:30:50;;;;;;;16.33;3.67;;;7.20;90.50;;;;;;5012547;28;20175;-49
2023/01/26 11:33:21;;;;;;;18.70;3.58;;;7.30;90.60;;;;;;5030191;28;20055;-50
2023/01/26 11:35:50;;;;;;;18.60;3.95;;;7.30;90.40;;;;;;5028046;28;20079;-49
2023/01/26 11:38:39;;;;;;;12.60;3.58;;;7.30;90.00;;;;;;5029636;28;20041;-47
2023/01/26 11:41:22;;;;;;;18.73;3.15;;;7.30;90.30;;;;;;5029535;28;20037;-47
2023/01/26 11:44:24;;;;;;;17.20;4.30;;;7.30;90.50;;;;;;5029202;28;20017;-47
2023/01/26 11:47:30;;;;;;;20.92;2.65;;;7.20;90.30;;;;;;5026768;28;20037;-50
2023/01/26 11:50:23;;;;;;;24.65;4.68;;;7.20;89.90;;;;;;5027681;28;20026;-46
2023/01/26 11:53:22;;;;;;;20.40;3.70;;;7.10;90.40;;;;;;5027466;28;20029;-47
2023/01/26 11:56:32;;;;;;;24.13;3.63;;;7.00;90.10;;;;;;5029566;28;20398;-47
2023/01/26 11:59:20;;;;;;;;;;;7.10;90.30;;;;;;5027351;28;20447;-47
2023/01/26 12:02:25;;;;;;;26.30;3.42;;;7.10;90.50;;;;;;5028642;28;20351;-52
2023/01/26 12:04:54;;;;;;;23.92;5.35;;;7.20;90.30;;;;;;5027603;28;20057;-52
2023/01/26 12:07:29;;;;;;;15.18;2.58;;;7.20;90.00;;;;;;5024504;28;20038;-48
2023/01/26 12:09:57;;;;;;;17.05;5.03;;;7.10;89.90;;;;;;5009944;28;20049;-50
2023/01/26 12:12:50;;;;;;;14.20;2.67;;;7.10;89.90;;;;;;5025284;28;20112;-50
2023/01/26 12:15:22;;;;;;;19.48;3.80;;;7.10;90.00;;;;;;5023490;28;20107;-48
2023/01/26 12:18:21;;;;;;;15.52;4.63;;;7.00;90.20;;;;;;5024991;28;20033;-50
2023/01/26 12:20:57;;;;;;;20.38;3.40;;;7.10;90.60;;;;;;5024717;28;20112;-50
2023/01/26 12:23:41;;;;;;;13.95;4.20;;;7.10;90.50;;;;;;5025857;28;20056;-51
2023/01/26 12:26:15;;;;;;;17.13;3.30;;;7.00;90.20;;;;;;5025453;28;20082;-48
2023/01/26 12:28:53;;;;;;;20.17;3.33;;;7.00;90.30;;;;;;5025363;28;20090;-47
2023/01/26 12:31:22;;;;;;;16.20;3.17;;;7.00;90.30;;;;;;5019067;28;20032;-50
2023/01/26 12:33:53;;;;;;;17.40;3.10;;;7.00;90.20;;;;;;5020654;28;20041;-47
2023/01/26 12:36:47;;;;;;;17.80;3.13;;;7.10;90.20;;;;;;5020110;28;20026;-50
2023/01/26 12:39:39;;;;;;;16.75;3.38;;;7.10;89.50;;;;;;5021618;28;20037;-52
2023/01/26 12:42:47;;;;;;;17.92;2.80;;;7.10;89.10;;;;;;5017198;28;20054;-46
2023/01/26 12:45:39;;;;;;;16.20;3.45;;;7.10;88.70;;;;;;5020226;28;20040;-48
2023/01/26 12:48:17;;;;;;;10.35;2.50;;;7.10;88.90;;;;;;5020464;28;20507;-50
2023/01/26 12:51:04;;;;;;;15.90;2.65;;;7.10;89.20;;;;;;5021284;28;20471;-48
2023/01/26 12:53:54;;;;;;;14.52;2.60;;;7.20;89.60;;;;;;5021232;28;20033;-48
2023/01/26 12:56:38;;;;;;;;;;;7.20;89.80;;;;;;5021613;28;20119;-49
2023/01/26 12:59:36;;;;;;;16.05;2.65;;;7.20;90.10;;;;;;5019480;28;19924;-48
2023/01/26 13:02:39;;;;;;;19.27;3.00;;;7.30;89.80;;;;;;5014146;28;20041;-48
2023/01/26 13:05:33;;;;;;;12.75;2.53;;;7.30;89.30;;;;;;5014869;28;20038;-46
2023/01/26 13:08:37;;;;;;;13.82;2.85;;;7.20;89.20;;;;;;5015130;28;20132;-47
2023/01/26 13:11:06;;;;;;;17.55;4.40;;;7.30;89.60;;;;;;5016153;28;20433;-47
2023/01/26 13:13:52;;;;;;;15.60;6.28;;;7.30;89.50;;;;;;5015783;28;20067;-47
2023/01/26 13:16:20;;;;;;;13.07;3.55;;;7.30;89.70;;;;;;5015362;28;20037;-46
2023/01/26 13:18:50;;;;;;;13.18;3.45;;;7.30;89.80;;;;;;5016332;28;20408;-47
2023/01/26 13:21:45;;;;;;;11.20;2.70;;;7.30;89.70;;;;;;5016989;28;20099;-46
2023/01/26 13:24:20;;;;;;;13.27;2.20;;;7.20;89.20;;;;;;5013622;28;20033;-47
2023/01/26 13:26:57;;;;;;;12.38;2.63;;;7.10;88.00;;;;;;5016348;28;20083;-49
2023/01/26 13:29:55;;;;;;;8.60;2.40;;;7.00;87.50;;;;;;5024150;28;20057;-50
2023/01/26 13:32:21;;;;;;;13.52;2.13;;;6.90;87.70;;;;;;5025224;28;20099;-50
2023/01/26 13:34:56;;;;;;;12.40;3.20;;;6.90;88.10;;;;;;5029643;28;20034;-48
2023/01/26 13:37:32;;;;;;;13.95;2.53;;;6.90;88.40;;;;;;5029788;28;20038;-47
2023/01/26 13:40:05;;;;;;;20.60;2.67;;;6.90;88.60;;;;;;5030369;28;20147;-47
2023/01/26 13:42:53;;;;;;;14.73;2.60;;;6.80;88.60;;;;;;5031130;28;20062;-50
2023/01/26 13:45:35;;;;;;;14.30;2.10;;;6.80;88.50;;;;;;5019067;28;20370;-49
2023/01/26 13:48:11;;;;;;;15.48;3.42;;;6.70;88.30;;;;;;5027556;28;20044;-48
2023/01/26 13:50:41;;;;;;;9.57;2.03;;;6.70;88.60;;;;;;5018663;28;20119;-48
2023/01/26 13:53:27;;;;;;;14.05;2.53;;;6.80;88.80;;;;;;5034547;28;20025;-48
2023/01/26 13:55:58;;;;;;;10.60;2.40;;;6.70;88.60;;;;;;5031781;28;20076;-46
2023/01/26 13:58:24;;;;;;;16.42;2.42;;;6.80;88.50;;;;;;5017671;28;20443;-46
2023/01/26 14:01:14;;;;;;;14.50;3.25;;;6.80;87.80;;;;;;5035011;28;20067;-48
2023/01/26 14:03:41;;;;;;;7.78;1.95;;;6.70;87.20;;;;;;5024928;28;20033;-48
2023/01/26 14:06:21;;;;;;;9.48;3.05;;;6.70;86.80;;;;;;5018008;28;20473;-47